Mercer County Airport
KBLF : now visible

Airfield :











YOU CAN JOIN US ON...

 
LOGIN :

Register | Disclaimer

   EN    FR    IT 

 









Legend :    VFR   Marginal VFR   IFR   Intensive IFR   Very Intensive IFR
Visi :
Ceiling :
>= 8 km
>= 3000ft
5 to 8 km
1000 to 3000 ft
1500m to 5 km
500 to 1000 ft
800 to 1500m
200 to 500 ft
< 800m
< 200 ft
Symbols :   Thunderstorms  Fog  Heavy snow  Heavy precipitations  Wind > 20 kt







- Airport Elevation : 2857 ft
- IATA code : BLF


KBLF - Mercer County

CURRENT METAR :
  • 201552Z AUTO 21008KT 10SM BKN025 OVC032 07/02 A2962 RMK AO2 SLP015 T00720022

EXPIRED METARs :
  • 201543Z AUTO VRB05KT 10SM BKN027 OVC034 07/02 A2961 RMK AO2 T00720017
  • 201533Z AUTO 22010KT 10SM BKN032 OVC040 08/02 A2961 RMK AO2 T00780017
  • 201522Z AUTO 23011G17KT 10SM BKN029 OVC039 08/02 A2961 RMK AO2 T00780017
  • 201512Z AUTO 23008KT 10SM FEW022 BKN030 OVC040 08/02 A2961 RMK AO2 T00830017
  • 201452Z AUTO 19007KT 10SM OVC022 08/02 A2959 RMK AO2 SLP007 T00780022 53019
  • 201352Z AUTO 20004KT 10SM BKN022 OVC027 08/03 A2957 RMK AO2 SLP998 T00780033

TAF KBLF
Valid from the 20 at 13:00 until the 21 at 12:00 UTC


201307Z 2013/2112 18007KT P6SM VCSH BKN022 OVC035
TEMPO 2015/2019 4SM -SHRA BR OVC015
FM201900 19012G22KT P6SM -SHRA OVC012
FM210300 24008KT P6SM BKN004
FM211000 27007KT P6SM BKN002
KZID FIR / North America



MET'MAP, your aeronautical weather chart ! - Copyright ORBIFLY December 2007 - Disclaimer

ORBIFLY MET'MAP TEAM :

Programming & Development : Alexandra Zaïnal
Concept & Development : Baudouin d'Aumeries
Co-Development & Prog : Marc-Olivier Méhu
Technical & hardware support : Manuel Goepfert

Contact : metmap@orbifly.com




SOURCES & CREDITS :

   NOAA       Earth
Advisory